Time;durP1;ratioP1;P1;durP2;ratioP2;P2;SDS_P1;SDS_P2;PMS_P1;PMS_P2;Temp;Humidity;BMP_temperature;BMP_pressure;BME280_temperature;BME280_humidity;BME280_pressure;Samples;Min_cycle;Max_cycle;Signal;HPM_P1;HPM_P2
2023/04/04 00:01:34;;;;;;;1.05;0.60;;;;;;;4.53;59.92;103135.75;5032489;27;96758;-29
2023/04/04 00:04:00;;;;;;;0.50;0.50;;;;;;;4.51;60.08;103140.25;5031990;27;97857;-29
2023/04/04 00:06:25;;;;;;;0.47;0.32;;;;;;;4.49;59.91;103144.72;5031706;27;99295;-30
2023/04/04 00:08:50;;;;;;;1.48;0.60;;;;;;;4.47;60.00;103150.06;5031209;28;98896;-29
2023/04/04 00:11:16;;;;;;;0.63;0.40;;;;;;;4.40;59.43;103146.47;5031910;27;96737;-29
2023/04/04 00:13:42;;;;;;;0.80;0.45;;;;;;;4.35;60.00;103145.59;5031525;27;97887;-28
2023/04/04 00:16:07;;;;;;;1.55;0.38;;;;;;;4.39;60.75;103144.69;5030211;28;101253;-31
2023/04/04 00:18:32;;;;;;;0.70;0.60;;;;;;;4.34;59.93;103145.56;5030272;27;96786;-29
2023/04/04 00:20:58;;;;;;;0.65;0.43;;;;;;;4.31;59.98;103148.25;5031888;27;96653;-29
2023/04/04 00:23:24;;;;;;;0.20;0.20;;;;;;;4.29;59.81;103144.66;5031751;27;97876;-29
2023/04/04 00:25:52;;;;;;;1.08;0.35;;;;;;;4.19;59.82;103141.97;5030431;28;101602;-29
2023/04/04 00:28:18;;;;;;;0.38;0.32;;;;;;;4.22;59.98;103139.31;5029952;28;96738;-28
2023/04/04 00:30:43;;;;;;;0.43;0.40;;;;;;;4.24;60.21;103139.28;5030219;28;96844;-28
2023/04/04 00:33:09;;;;;;;0.32;0.30;;;;;;;4.23;60.18;103132.16;5030702;28;99573;-29
2023/04/04 00:35:34;;;;;;;0.95;0.77;;;;;;;4.20;59.93;103126.78;5031237;28;100034;-29
2023/04/04 00:38:00;;;;;;;0.32;0.30;;;;;;;4.20;59.06;103127.69;5031117;27;96568;-28
2023/04/04 00:40:25;;;;;;;0.38;0.38;;;;;;;4.14;59.50;103127.66;5031234;27;96762;-29
2023/04/04 00:42:51;;;;;;;4.05;0.85;;;;;;;4.15;59.67;103131.25;5033684;27;97776;-29
2023/04/04 00:45:16;;;;;;;0.82;0.32;;;;;;;4.15;59.46;103121.41;5033332;28;101173;-28
2023/04/04 00:47:43;;;;;;;1.13;0.28;;;;;;;4.12;59.62;103124.06;5034789;28;96637;-28
2023/04/04 00:50:08;;;;;;;1.00;0.80;;;;;;;4.09;59.70;103121.41;5033685;28;96743;-29
2023/04/04 00:52:34;;;;;;;0.75;0.60;;;;;;;4.05;59.10;103122.28;5034860;28;98676;-30
2023/04/04 00:55:00;;;;;;;2.03;0.30;;;;;;;4.02;59.87;103115.13;5034080;27;99297;-29
2023/04/04 00:57:28;;;;;;;0.50;0.45;;;;;;;4.03;60.13;103119.59;5033976;28;96648;-28
2023/04/04 00:59:54;;;;;;;0.38;0.35;;;;;;;4.02;59.97;103124.94;5033226;28;96793;-28
2023/04/04 01:02:20;;;;;;;0.57;0.40;;;;;;;3.98;59.84;103115.09;5033045;28;100930;-29
2023/04/04 01:04:47;;;;;;;1.75;0.38;;;;;;;3.96;60.26;103123.16;5034376;28;99581;-29
2023/04/04 01:07:12;;;;;;;0.52;0.38;;;;;;;3.97;59.95;103121.38;5033163;28;96553;-30
2023/04/04 01:09:38;;;;;;;0.75;0.35;;;;;;;3.95;61.04;103117.78;5034311;28;96809;-29
2023/04/04 01:12:03;;;;;;;0.15;0.13;;;;;;;3.94;60.94;103122.25;5034295;28;97638;-29
2023/04/04 01:14:29;;;;;;;0.65;0.47;;;;;;;3.94;61.08;103124.94;5034655;28;98429;-29
2023/04/04 01:16:55;;;;;;;0.73;0.50;;;;;;;3.90;60.61;103116.88;5034526;27;96535;-28
2023/04/04 01:19:29;;;;;;;0.85;0.73;;;;;;;3.85;60.88;103118.66;5034191;27;96810;-29
2023/04/04 01:21:56;;;;;;;0.98;0.55;;;;;;;3.82;60.99;103117.75;5032353;28;101661;-28
2023/04/04 01:24:23;;;;;;;0.82;0.60;;;;;;;3.80;60.74;103114.16;5032556;28;100070;-28
2023/04/04 01:26:50;;;;;;;0.93;0.70;;;;;;;3.78;60.74;103121.31;5032685;28;96853;-30
2023/04/04 01:29:15;;;;;;;0.35;0.35;;;;;;;3.77;61.22;103121.31;5032686;28;97022;-29
2023/04/04 01:31:48;;;;;;;0.60;0.45;;;;;;;3.76;61.32;103115.03;5034057;27;97451;-29
2023/04/04 01:34:23;;;;;;;0.68;0.63;;;;;;;3.78;61.78;103120.41;5032738;28;100893;-29
2023/04/04 01:37:39;;;;;;;1.27;0.80;;;;;;;3.76;62.13;103117.72;5032664;27;96892;-29
2023/04/04 01:40:16;;;;;;;0.35;0.32;;;;;;;3.74;62.41;103116.84;5020169;27;96923;-29
2023/04/04 01:42:43;;;;;;;0.63;0.40;;;;;;;3.72;61.70;103109.66;5032443;27;101087;-29
2023/04/04 01:45:09;;;;;;;0.25;0.25;;;;;;;3.66;61.56;103110.56;5032395;28;100959;-29
2023/04/04 01:47:39;;;;;;;4.32;0.45;;;;;;;3.65;62.29;103108.78;5033334;27;96472;-29
2023/04/04 01:50:06;;;;;;;1.02;0.63;;;;;;;3.59;61.88;103100.69;5032731;28;96877;-28
2023/04/04 01:52:31;;;;;;;1.10;0.55;;;;;;;3.54;62.25;103103.34;5031797;27;99827;-29
2023/04/04 01:54:57;;;;;;;0.73;0.57;;;;;;;3.56;62.52;103112.31;5033069;27;99992;-29
2023/04/04 01:57:22;;;;;;;0.30;0.30;;;;;;;3.54;61.85;103107.81;5033858;27;96660;-29
2023/04/04 01:59:47;;;;;;;0.68;0.45;;;;;;;3.50;62.86;103103.34;5033473;27;96718;-29
2023/04/04 02:02:13;;;;;;;0.40;0.25;;;;;;;3.49;61.79;103099.75;5033613;27;98388;-28
2023/04/04 02:04:38;;;;;;;1.13;0.68;;;;;;;3.44;61.94;103104.22;5033715;27;98661;-29
2023/04/04 02:07:03;;;;;;;0.47;0.22;;;;;;;3.36;62.68;103100.59;5033572;27;96434;-28
2023/04/04 02:09:29;;;;;;;0.63;0.45;;;;;;;3.40;62.63;103114.00;5033427;27;96801;-29
2023/04/04 02:11:54;;;;;;;0.63;0.52;;;;;;;3.36;62.50;103113.97;5032819;27;98839;-29
2023/04/04 02:14:20;;;;;;;1.80;0.85;;;;;;;3.36;63.08;103108.63;5033135;27;99018;-29
2023/04/04 02:16:45;;;;;;;0.52;0.40;;;;;;;3.37;63.50;103113.09;5033397;27;96547;-28
2023/04/04 02:19:11;;;;;;;0.35;0.35;;;;;;;3.34;63.34;103115.78;5033557;27;96705;-29
2023/04/04 02:21:37;;;;;;;0.80;0.60;;;;;;;3.28;62.93;103116.63;5031798;28;101545;-29
2023/04/04 02:24:02;;;;;;;0.32;0.32;;;;;;;3.27;62.68;103124.66;5033195;27;98712;-31
2023/04/04 02:26:28;;;;;;;0.63;0.45;;;;;;;3.24;63.10;103128.19;5032895;28;96789;-29
2023/04/04 02:28:53;;;;;;;0.65;0.40;;;;;;;3.25;63.52;103132.69;5033509;27;96761;-29
2023/04/04 02:31:18;;;;;;;0.43;0.25;;;;;;;3.21;62.77;103129.97;5032988;27;98577;-29
2023/04/04 02:33:44;;;;;;;0.30;0.30;;;;;;;3.22;61.79;103131.75;5033255;27;97307;-29
2023/04/04 02:36:10;;;;;;;0.70;0.60;;;;;;;3.18;62.45;103125.50;5032616;27;96506;-29
2023/04/04 02:38:36;;;;;;;1.13;0.77;;;;;;;3.16;63.01;103124.59;5032651;27;97413;-29
2023/04/04 02:41:01;;;;;;;0.40;0.40;;;;;;;3.13;62.98;103132.63;5033115;27;97935;-28
2023/04/04 02:43:26;;;;;;;0.20;0.20;;;;;;;3.12;63.57;103126.38;5032674;27;99883;-31
2023/04/04 02:45:52;;;;;;;1.25;0.65;;;;;;;3.08;63.51;103121.88;5032868;27;96545;-30
2023/04/04 02:48:17;;;;;;;1.15;0.57;;;;;;;3.08;63.65;103112.97;5033008;27;96721;-29
2023/04/04 02:50:42;;;;;;;0.90;0.55;;;;;;;3.06;63.72;103106.69;5032824;27;97990;-29
2023/04/04 02:53:08;;;;;;;0.35;0.32;;;;;;;3.06;63.37;103114.72;5032839;27;97770;-30
2023/04/04 02:55:33;;;;;;;0.65;0.65;;;;;;;3.05;63.47;103104.88;5033116;27;96653;-30
2023/04/04 02:58:00;;;;;;;1.05;0.80;;;;;;;2.97;63.85;103096.81;5032704;27;96918;-29
2023/04/04 03:00:26;;;;;;;1.23;0.40;;;;;;;2.95;63.35;103098.56;5030717;28;100922;-28
2023/04/04 03:02:55;;;;;;;1.45;0.93;;;;;;;2.94;64.12;103094.13;5032722;27;97369;-29
2023/04/04 03:05:22;;;;;;;1.10;0.52;;;;;;;2.92;63.80;103091.44;5030556;28;96627;-29
2023/04/04 03:07:52;;;;;;;0.65;0.40;;;;;;;2.88;64.46;103081.56;5031300;28;96911;-29
2023/04/04 03:10:17;;;;;;;1.88;0.63;;;;;;;2.90;64.11;103085.16;5032294;27;97925;-29
2023/04/04 03:12:44;;;;;;;1.00;0.82;;;;;;;2.84;63.66;103077.09;5032383;27;97485;-29
2023/04/04 03:15:10;;;;;;;0.30;0.30;;;;;;;2.84;64.51;103078.91;5031076;28;96602;-29
2023/04/04 03:17:36;;;;;;;1.67;0.50;;;;;;;2.82;64.32;103078.88;5032587;27;96926;-29
2023/04/04 03:20:01;;;;;;;2.63;0.95;;;;;;;2.83;63.56;103079.75;5032453;28;98326;-29
2023/04/04 03:22:26;;;;;;;0.45;0.45;;;;;;;2.83;64.02;103086.00;5032293;27;99183;-29
2023/04/04 03:24:51;;;;;;;0.50;0.43;;;;;;;2.81;64.54;103090.44;5032048;27;96470;-29
2023/04/04 03:27:17;;;;;;;0.25;0.20;;;;;;;2.75;64.51;103083.28;5031726;27;96829;-29
2023/04/04 03:29:42;;;;;;;0.95;0.70;;;;;;;2.77;64.42;103091.34;5031969;27;99083;-29
2023/04/04 03:32:07;;;;;;;0.90;0.60;;;;;;;2.75;64.42;103080.59;5032160;27;99124;-29
2023/04/04 03:34:33;;;;;;;0.30;0.30;;;;;;;2.77;65.00;103096.69;5032267;27;96471;-29
2023/04/04 03:36:58;;;;;;;1.45;0.75;;;;;;;2.71;65.16;103084.13;5032489;27;96800;-29
2023/04/04 03:39:28;;;;;;;0.30;0.30;;;;;;;2.73;64.95;103109.13;5031649;27;99244;-29
2023/04/04 03:41:55;;;;;;;0.10;0.10;;;;;;;2.73;64.87;103109.13;5030637;27;101112;-29
2023/04/04 03:44:20;;;;;;;0.50;0.43;;;;;;;2.70;64.89;103108.22;5030717;28;96611;-30
2023/04/04 03:46:45;;;;;;;0.93;0.52;;;;;;;2.66;64.62;103103.72;5032272;27;96789;-29
2023/04/04 03:49:11;;;;;;;0.35;0.35;;;;;;;2.61;64.72;103100.13;5031523;28;97926;-29
2023/04/04 03:51:36;;;;;;;0.57;0.45;;;;;;;2.63;64.90;103111.75;5031779;27;99637;-28
2023/04/04 03:54:01;;;;;;;1.98;0.55;;;;;;;2.60;65.57;103117.03;5031452;27;96648;-28
2023/04/04 03:56:27;;;;;;;0.20;0.20;;;;;;;2.57;65.76;103112.56;5032004;27;96840;-29
2023/04/04 03:58:55;;;;;;;0.70;0.70;;;;;;;2.55;65.34;103108.97;5031974;27;97918;-28
2023/04/04 04:01:20;;;;;;;0.38;0.38;;;;;;;2.54;65.36;103099.16;5030387;28;100971;-28
2023/04/04 04:03:46;;;;;;;0.50;0.30;;;;;;;2.52;64.93;103095.59;5032133;27;96539;-29
2023/04/04 04:06:11;;;;;;;0.50;0.50;;;;;;;2.46;65.74;103096.44;5031257;28;96742;-29
2023/04/04 04:08:37;;;;;;;0.38;0.32;;;;;;;2.44;65.70;103091.97;5031539;28;99892;-29
2023/04/04 04:11:06;;;;;;;0.57;0.57;;;;;;;2.39;66.12;103083.91;5031940;27;97789;-29
2023/04/04 04:13:33;;;;;;;0.80;0.65;;;;;;;2.41;65.93;103099.94;5029976;28;97238;-28
2023/04/04 04:15:59;;;;;;;0.38;0.38;;;;;;;2.40;66.28;103098.16;5032884;27;97005;-28
2023/04/04 04:18:24;;;;;;;0.75;0.65;;;;;;;2.36;66.17;103094.59;5034996;27;99725;-28
2023/04/04 04:20:49;;;;;;;0.50;0.38;;;;;;;2.34;66.24;103107.03;5035073;27;99062;-30
2023/04/04 04:23:14;;;;;;;0.63;0.43;;;;;;;2.27;66.10;103102.50;5035512;27;96531;-29
2023/04/04 04:25:40;;;;;;;4.68;0.50;;;;;;;2.26;66.83;103108.72;5035157;27;96820;-28
2023/04/04 04:28:05;;;;;;;0.40;0.40;;;;;;;2.27;66.70;103106.06;5034921;27;97807;-29
2023/04/04 04:30:30;;;;;;;0.22;0.20;;;;;;;2.25;66.97;103102.50;5035545;27;97852;-30
2023/04/04 04:32:56;;;;;;;0.40;0.32;;;;;;;2.23;66.74;103100.69;5035350;27;96678;-29
2023/04/04 04:35:21;;;;;;;0.73;0.63;;;;;;;2.21;66.96;103103.34;5034929;27;96770;-28
2023/04/04 04:37:46;;;;;;;1.73;1.23;;;;;;;2.22;66.45;103107.81;5034399;27;97436;-29
2023/04/04 04:40:13;;;;;;;0.45;0.20;;;;;;;2.24;66.83;103102.47;5033378;28;99356;-29
2023/04/04 04:42:44;;;;;;;1.10;0.43;;;;;;;2.19;66.47;103107.75;5033435;28;96571;-29
2023/04/04 04:45:10;;;;;;;0.93;0.57;;;;;;;2.18;67.18;103107.78;5034799;27;96793;-28
2023/04/04 04:47:36;;;;;;;0.55;0.45;;;;;;;2.15;67.35;103113.09;5034705;27;99331;-29
2023/04/04 04:50:01;;;;;;;0.88;0.63;;;;;;;2.11;66.82;103109.47;5034927;27;97847;-29
2023/04/04 04:52:28;;;;;;;0.95;0.85;;;;;;;2.12;67.27;103122.88;5034656;28;96598;-29
2023/04/04 04:54:54;;;;;;;0.85;0.73;;;;;;;2.09;67.30;103119.25;5034822;27;96787;-30
2023/04/04 04:57:20;;;;;;;1.65;0.68;;;;;;;2.05;67.69;103115.69;5034740;27;97928;-29
2023/04/04 04:59:45;;;;;;;0.47;0.38;;;;;;;2.01;67.24;103110.28;5034637;27;97951;-28
2023/04/04 05:02:10;;;;;;;1.98;1.05;;;;;;;1.98;67.22;103111.16;5033927;27;96646;-31
2023/04/04 05:04:40;;;;;;;0.20;0.20;;;;;;;1.96;67.71;103110.22;5034754;27;96826;-30
2023/04/04 05:07:07;;;;;;;0.43;0.43;;;;;;;1.96;68.01;103109.34;5034230;27;99936;-29
2023/04/04 05:09:32;;;;;;;0.28;0.25;;;;;;;1.97;68.20;103120.03;5034349;27;97880;-29
2023/04/04 05:11:58;;;;;;;1.00;0.75;;;;;;;1.91;68.01;103114.63;5034242;27;96599;-29
2023/04/04 05:14:23;;;;;;;0.40;0.40;;;;;;;1.87;68.20;103115.47;5034639;27;97013;-29
2023/04/04 05:16:49;;;;;;;3.13;1.08;;;;;;;1.84;68.15;103118.13;5034447;27;97361;-28
2023/04/04 05:19:15;;;;;;;0.50;0.22;;;;;;;1.82;68.53;103114.53;5034306;27;99653;-29
2023/04/04 05:21:40;;;;;;;0.82;0.52;;;;;;;1.85;68.77;103118.09;5034201;28;96448;-29
2023/04/04 05:24:06;;;;;;;1.10;0.70;;;;;;;1.84;68.61;103116.31;5034494;27;96830;-29
2023/04/04 05:26:31;;;;;;;0.80;0.70;;;;;;;1.90;68.00;103124.41;5032229;27;100940;-29
2023/04/04 05:28:58;;;;;;;4.07;1.05;;;;;;;1.90;68.51;103121.72;5033376;27;97310;-29
2023/04/04 05:31:23;;;;;;;0.30;0.25;;;;;;;1.94;68.24;103124.44;5034378;27;96809;-32
2023/04/04 05:33:49;;;;;;;1.20;0.63;;;;;;;1.95;68.10;103127.13;5032816;27;96775;-29
2023/04/04 05:36:14;;;;;;;0.55;0.47;;;;;;;1.94;68.34;103117.31;5033696;27;107039;-30
2023/04/04 05:38:40;;;;;;;0.95;0.75;;;;;;;1.95;68.78;103129.78;5033272;27;99288;-29
2023/04/04 05:41:05;;;;;;;2.13;1.38;;;;;;;1.94;68.37;103133.34;5034099;28;96525;-28
2023/04/04 05:43:31;;;;;;;5.88;3.40;;;;;;;1.93;68.02;103126.19;5034586;27;96825;-30
2023/04/04 05:45:56;;;;;;;12.02;6.93;;;;;;;1.98;68.63;103137.88;5033658;27;98793;-29
2023/04/04 05:48:22;;;;;;;28.23;11.02;;;;;;;1.97;68.47;103141.41;5033820;27;97361;-29
2023/04/04 05:50:47;;;;;;;13.57;6.22;;;;;;;1.98;68.43;103135.19;5033167;28;97347;-29
2023/04/04 05:53:13;;;;;;;11.02;6.07;;;;;;;1.98;68.38;103140.53;5032827;27;99964;-28
2023/04/04 05:55:38;;;;;;;4.72;3.22;;;;;;;2.01;68.03;103134.34;5033980;27;97797;-29
2023/04/04 05:58:03;;;;;;;3.97;1.95;;;;;;;2.00;68.79;103132.53;5033577;27;97844;-29
2023/04/04 06:00:29;;;;;;;2.90;1.73;;;;;;;2.02;69.13;103130.75;5034375;27;96436;-29
2023/04/04 06:02:58;;;;;;;1.27;1.02;;;;;;;2.06;68.54;103129.94;5033710;27;96866;-29
2023/04/04 06:05:24;;;;;;;1.77;1.33;;;;;;;2.08;68.26;103130.84;5033401;27;99398;-28
2023/04/04 06:07:49;;;;;;;3.03;1.55;;;;;;;2.07;68.89;103131.69;5032010;28;100771;-29
2023/04/04 06:10:15;;;;;;;2.03;1.13;;;;;;;2.12;68.27;103130.91;5033795;27;96799;-29
2023/04/04 06:12:40;;;;;;;3.50;0.98;;;;;;;2.17;68.06;103133.63;5033781;27;96763;-29
2023/04/04 06:15:06;;;;;;;0.40;0.40;;;;;;;2.21;68.19;103132.75;5031599;28;99176;-29
2023/04/04 06:17:32;;;;;;;1.58;0.98;;;;;;;2.23;67.73;103125.63;5033185;27;99933;-29
2023/04/04 06:19:57;;;;;;;1.02;0.93;;;;;;;2.29;67.63;103136.41;5033582;27;96677;-29
2023/04/04 06:22:22;;;;;;;1.77;1.48;;;;;;;2.37;67.45;103120.44;5033161;27;96753;-28
2023/04/04 06:24:48;;;;;;;11.85;5.00;;;;;;;2.43;66.69;103125.84;5033027;27;99257;-29
2023/04/04 06:27:13;;;;;;;23.15;12.98;;;;;;;2.53;66.71;103129.50;5033111;27;97436;-29
2023/04/04 06:29:38;;;;;;;19.13;9.25;;;;;;;2.62;66.10;103125.97;5033381;28;97015;-29
2023/04/04 06:32:04;;;;;;;4.78;2.92;;;;;;;2.73;66.25;103124.28;5033512;27;96674;-29
2023/04/04 06:34:30;;;;;;;3.30;2.53;;;;;;;2.88;65.58;103131.53;5032782;27;99956;-30
2023/04/04 06:36:55;;;;;;;3.17;2.20;;;;;;;3.05;65.31;103131.66;5032804;27;97350;-29
2023/04/04 06:39:21;;;;;;;3.30;2.58;;;;;;;3.22;65.18;103127.31;5032353;27;96825;-29
2023/04/04 06:41:47;;;;;;;3.17;2.30;;;;;;;3.39;64.51;103136.34;5033173;27;96750;-29
2023/04/04 06:44:13;;;;;;;7.43;1.48;;;;;;;3.61;64.35;103133.75;5033114;28;97332;-28
2023/04/04 06:46:38;;;;;;;3.75;1.55;;;;;;;3.79;63.89;103138.28;5032896;27;99056;-29
2023/04/04 06:49:05;;;;;;;0.60;0.60;;;;;;;3.97;63.79;103134.78;5031688;28;96763;-29
2023/04/04 06:51:32;;;;;;;2.00;1.10;;;;;;;4.17;62.90;103129.44;5031417;28;96817;-29
2023/04/04 06:53:58;;;;;;;1.60;0.93;;;;;;;4.34;62.46;103118.75;5030610;28;101457;-30
2023/04/04 06:56:25;;;;;;;1.17;0.90;;;;;;;4.56;61.75;103128.63;5033031;27;97782;-29
2023/04/04 06:58:51;;;;;;;1.35;1.05;;;;;;;4.84;61.02;103131.31;5032685;27;96580;-29
2023/04/04 07:01:17;;;;;;;2.67;1.85;;;;;;;5.06;60.48;103121.41;5031488;28;96961;-29
2023/04/04 07:03:43;;;;;;;1.23;1.13;;;;;;;5.27;59.79;103134.81;5032247;28;97951;-29
2023/04/04 07:06:09;;;;;;;2.28;1.45;;;;;;;5.49;59.56;103138.31;5032415;28;97833;-29
2023/04/04 07:08:35;;;;;;;1.50;1.27;;;;;;;5.69;58.75;103126.59;5031407;28;96744;-30
2023/04/04 07:11:01;;;;;;;2.17;1.38;;;;;;;5.90;58.30;103134.53;5032629;27;96766;-29
2023/04/04 07:13:26;;;;;;;1.98;1.00;;;;;;;6.05;58.21;103130.03;5032561;27;98428;-29
2023/04/04 07:15:51;;;;;;;0.70;0.57;;;;;;;6.26;57.67;103139.75;5032366;28;102103;-29
2023/04/04 07:18:17;;;;;;;4.15;0.98;;;;;;;6.38;57.77;103129.78;5032682;28;96742;-30
2023/04/04 07:20:45;;;;;;;3.78;1.23;;;;;;;6.48;57.72;103129.72;5032771;27;96774;-29
2023/04/04 07:23:10;;;;;;;2.05;1.17;;;;;;;6.61;57.33;103133.25;5030925;28;100969;-29
2023/04/04 07:25:37;;;;;;;1.13;0.73;;;;;;;6.80;57.05;103141.13;5032062;27;99545;-29
2023/04/04 07:28:02;;;;;;;3.45;2.05;;;;;;;6.92;56.05;103137.44;5030366;28;96775;-29
2023/04/04 07:30:31;;;;;;;0.73;0.73;;;;;;;6.91;55.08;103122.19;5032340;27;96811;-29
2023/04/04 07:33:00;;;;;;;0.85;0.75;;;;;;;7.01;55.05;103125.69;5032032;28;97998;-29
2023/04/04 07:35:25;;;;;;;0.75;0.68;;;;;;;7.06;54.27;103128.34;5030625;28;101624;-30
2023/04/04 07:37:51;;;;;;;0.80;0.80;;;;;;;7.20;54.88;103126.41;5031878;27;96562;-30
2023/04/04 07:40:17;;;;;;;1.40;1.02;;;;;;;7.44;55.74;103130.63;5032263;27;96750;-29
2023/04/04 07:42:49;;;;;;;2.72;1.13;;;;;;;7.58;55.44;103130.44;5030732;28;101165;-29
2023/04/04 07:45:15;;;;;;;1.25;0.98;;;;;;;7.71;54.26;103129.38;5032292;27;99567;-28
2023/04/04 07:47:44;;;;;;;3.13;1.15;;;;;;;7.91;54.66;103134.50;5032014;27;96500;-29
2023/04/04 07:50:14;;;;;;;1.33;0.95;;;;;;;7.80;54.63;103123.88;5031221;27;96763;-29
2023/04/04 07:52:40;;;;;;;1.98;0.85;;;;;;;7.82;54.03;103121.16;5036725;28;101233;-28
2023/04/04 07:55:06;;;;;;;3.03;1.05;;;;;;;7.97;54.25;103115.53;5036918;28;101089;-30
2023/04/04 07:57:32;;;;;;;1.42;0.88;;;;;;;7.99;53.86;103112.81;5037369;28;96564;-29
2023/04/04 07:59:58;;;;;;;2.22;1.05;;;;;;;8.12;52.03;103118.94;5037416;28;96865;-32
2023/04/04 08:02:24;;;;;;;1.98;0.98;;;;;;;8.18;53.51;103111.63;5036809;27;101166;-28
2023/04/04 08:04:49;;;;;;;1.92;1.02;;;;;;;8.34;51.16;103123.06;5038347;27;99820;-29
2023/04/04 08:07:14;;;;;;;4.28;1.50;;;;;;;8.44;51.30;103115.78;5038560;27;96594;-29
2023/04/04 08:09:40;;;;;;;5.63;1.60;;;;;;;8.54;51.76;103122.81;5038977;28;96780;-29
2023/04/04 08:12:06;;;;;;;8.07;3.22;;;;;;;8.80;52.37;103116.97;5038494;27;97817;-29
2023/04/04 08:14:32;;;;;;;4.72;2.55;;;;;;;9.06;52.30;103126.41;5038246;27;98986;-28
2023/04/04 08:16:58;;;;;;;2.28;1.10;;;;;;;9.18;51.93;103118.06;5037802;27;96709;-28
2023/04/04 08:19:23;;;;;;;1.67;1.10;;;;;;;9.26;51.58;103116.09;5038437;27;96685;-28
2023/04/04 08:21:49;;;;;;;1.00;0.80;;;;;;;9.41;50.96;103114.00;5038125;27;98931;-29
2023/04/04 08:24:14;;;;;;;1.67;0.75;;;;;;;9.51;50.29;103110.19;5038264;27;98844;-29
2023/04/04 08:26:39;;;;;;;3.72;0.90;;;;;;;9.56;46.76;103101.06;5038356;27;96553;-28
2023/04/04 08:29:05;;;;;;;1.75;0.65;;;;;;;9.50;47.43;103108.41;5038519;27;96901;-28
2023/04/04 08:31:30;;;;;;;1.10;0.70;;;;;;;9.70;46.72;103108.91;5038095;27;99241;-29
2023/04/04 08:33:55;;;;;;;0.90;0.63;;;;;;;10.01;48.96;103113.63;5038376;27;99287;-29
2023/04/04 08:36:22;;;;;;;2.10;1.00;;;;;;;10.11;45.79;103112.50;5038104;27;96598;-29
2023/04/04 08:38:47;;;;;;;3.53;1.20;;;;;;;10.05;45.40;103109.91;5038073;27;96772;-29
2023/04/04 08:41:16;;;;;;;1.42;0.73;;;;;;;10.08;45.80;103108.94;5037669;27;98482;-29
2023/04/04 08:43:46;;;;;;;1.75;0.90;;;;;;;10.27;46.11;103104.00;5036531;28;100691;-29
2023/04/04 08:46:13;;;;;;;2.00;0.77;;;;;;;10.50;47.48;103104.34;5036599;28;96742;-29
2023/04/04 08:48:42;;;;;;;1.35;0.98;;;;;;;10.73;46.75;103103.78;5036796;28;96870;-29
2023/04/04 08:51:11;;;;;;;1.55;0.80;;;;;;;10.85;45.25;103099.88;5037968;27;98016;-29
2023/04/04 08:53:37;;;;;;;2.70;0.80;;;;;;;10.92;43.96;103092.47;5035862;28;101257;-29
2023/04/04 08:56:03;;;;;;;0.95;0.75;;;;;;;11.10;45.87;103097.34;5038318;27;96584;-28
2023/04/04 08:58:28;;;;;;;1.98;1.08;;;;;;;10.98;45.15;103097.69;5038154;28;96805;-29
2023/04/04 09:00:54;;;;;;;1.48;0.93;;;;;;;11.08;45.86;103101.94;5037644;27;99935;-30
2023/04/04 09:03:25;;;;;;;1.63;0.90;;;;;;;11.29;44.86;103096.84;5034064;27;97840;-29
2023/04/04 09:05:51;;;;;;;6.10;2.83;;;;;;;11.24;43.40;103097.88;5034389;28;96612;-29
2023/04/04 09:08:17;;;;;;;3.50;1.52;;;;;;;11.17;42.96;103101.69;5033124;28;96991;-29
2023/04/04 09:10:44;;;;;;;3.20;1.42;;;;;;;11.31;45.23;103095.88;5034322;27;97912;-30
2023/04/04 09:13:10;;;;;;;1.25;0.88;;;;;;;11.50;46.01;103098.06;5032753;27;101294;-29
2023/04/04 09:15:42;;;;;;;2.95;1.20;;;;;;;11.62;44.79;103103.13;5034547;27;96567;-28
2023/04/04 09:18:07;;;;;;;1.50;0.95;;;;;;;11.79;44.74;103106.22;5034608;27;96662;-30
2023/04/04 09:20:40;;;;;;;1.52;1.00;;;;;;;11.85;42.12;103103.31;5034432;28;98374;-29
2023/04/04 09:23:12;;;;;;;1.75;1.02;;;;;;;11.76;42.15;103097.28;5033121;27;99224;-28
2023/04/04 09:25:47;;;;;;;1.98;1.33;;;;;;;11.80;41.74;103094.44;5032751;28;96694;-29
2023/04/04 09:28:16;;;;;;;2.03;1.02;;;;;;;12.00;43.85;103091.13;5032721;28;96856;-31
2023/04/04 09:30:45;;;;;;;1.08;0.80;;;;;;;12.07;42.77;103092.72;5032108;28;101003;-29
2023/04/04 09:33:12;;;;;;;3.03;0.77;;;;;;;12.03;42.57;103092.84;5032747;28;100718;-30
2023/04/04 09:35:42;;;;;;;1.30;0.90;;;;;;;11.84;40.55;103089.78;5032819;28;96544;-29
2023/04/04 09:38:08;;;;;;;1.55;0.80;;;;;;;11.92;42.32;103095.00;5033601;27;96800;-29
2023/04/04 09:40:39;;;;;;;2.22;0.93;;;;;;;11.90;42.59;103093.25;5034129;28;97973;-29
2023/04/04 09:43:06;;;;;;;1.20;0.70;;;;;;;11.77;39.86;103090.91;5033926;27;99248;-29
2023/04/04 09:45:39;;;;;;;1.13;0.70;;;;;;;11.97;39.55;103088.50;5032562;28;96854;-29
2023/04/04 09:48:06;;;;;;;2.00;1.00;;;;;;;12.04;40.17;103097.38;5034178;27;96822;-29
2023/04/04 09:50:32;;;;;;;2.03;0.85;;;;;;;11.96;40.73;103094.88;5033792;27;97970;-28
2023/04/04 09:52:59;;;;;;;1.33;0.90;;;;;;;12.02;40.25;103099.25;5033184;28;98437;-28
2023/04/04 09:55:36;;;;;;;2.08;0.80;;;;;;;11.91;38.17;103091.41;5031957;28;96525;-28
2023/04/04 09:58:13;;;;;;;4.68;1.02;;;;;;;12.08;41.15;103090.88;5032316;28;96888;-29
2023/04/04 10:00:47;;;;;;;0.82;0.77;;;;;;;12.18;38.77;103083.31;5032214;28;100551;-30
2023/04/04 10:03:16;;;;;;;3.28;1.23;;;;;;;12.02;38.26;103086.53;5033165;27;99376;-29
2023/04/04 10:05:44;;;;;;;1.67;1.00;;;;;;;11.95;38.11;103073.22;5032357;28;96898;-29
2023/04/04 10:08:14;;;;;;;1.98;0.93;;;;;;;12.09;40.23;103079.97;5032249;28;96844;-29
2023/04/04 10:10:47;;;;;;;3.45;1.05;;;;;;;12.38;40.53;103088.13;5032101;28;101039;-30
2023/04/04 10:13:13;;;;;;;2.67;0.70;;;;;;;12.51;40.28;103086.75;5032148;27;101249;-29
2023/04/04 10:15:40;;;;;;;1.00;0.75;;;;;;;12.67;39.74;103082.56;5033298;27;96769;-29
2023/04/04 10:18:06;;;;;;;0.68;0.55;;;;;;;12.64;37.51;103076.38;5031925;28;96592;-29
2023/04/04 10:20:33;;;;;;;1.70;0.70;;;;;;;12.56;37.47;103076.63;5031287;28;100891;-29
2023/04/04 10:22:59;;;;;;;1.63;0.73;;;;;;;12.58;38.91;103073.84;5031823;28;101257;-29
2023/04/04 10:25:24;;;;;;;2.10;1.15;;;;;;;12.51;38.67;103084.03;5032170;28;96664;-29
2023/04/04 10:27:50;;;;;;;0.93;0.63;;;;;;;12.67;39.65;103071.69;5033009;27;96812;-29
2023/04/04 10:30:15;;;;;;;3.50;0.98;;;;;;;12.86;37.14;103073.78;5032857;28;99584;-29
2023/04/04 10:33:00;;;;;;;1.38;0.90;;;;;;;12.65;36.99;103069.97;5033230;28;97823;-29
2023/04/04 10:35:27;;;;;;;1.30;0.70;;;;;;;12.78;37.41;103063.19;5031928;28;96595;-29
2023/04/04 10:38:01;;;;;;;4.25;0.88;;;;;;;12.96;38.12;103070.66;5032036;27;96889;-29
2023/04/04 10:40:32;;;;;;;1.77;0.88;;;;;;;13.02;36.71;103074.13;5031581;27;100961;-29
2023/04/04 10:43:04;;;;;;;1.40;0.90;;;;;;;13.10;36.57;103077.44;5031487;28;101183;-29
2023/04/04 10:45:37;;;;;;;0.80;0.60;;;;;;;13.11;38.99;103062.91;5031134;28;96604;-29
2023/04/04 10:48:03;;;;;;;3.08;0.88;;;;;;;13.28;36.00;103059.59;5032900;28;96841;-30
2023/04/04 10:50:30;;;;;;;3.90;1.30;;;;;;;13.39;38.02;103062.78;5031383;28;101505;-29
2023/04/04 10:52:58;;;;;;;1.90;0.75;;;;;;;13.44;37.91;103049.88;5032425;27;98009;-29
2023/04/04 10:55:24;;;;;;;2.45;1.23;;;;;;;13.28;38.00;103055.03;5031235;28;96734;-29
2023/04/04 10:57:53;;;;;;;1.10;0.80;;;;;;;13.42;37.59;103050.88;5031592;28;96932;-29
2023/04/04 11:00:22;;;;;;;4.45;0.95;;;;;;;13.61;37.18;103046.53;5031259;28;101254;-29
2023/04/04 11:02:50;;;;;;;1.95;1.05;;;;;;;13.71;36.52;103044.34;5031433;28;100888;-29
2023/04/04 11:05:24;;;;;;;1.50;0.90;;;;;;;13.66;36.35;103047.22;5031267;27;96628;-29
2023/04/04 11:07:58;;;;;;;1.75;1.08;;;;;;;13.45;36.06;103048.94;5031117;28;96927;-29
2023/04/04 11:10:26;;;;;;;2.35;1.15;;;;;;;13.54;37.58;103036.81;5031909;27;99518;-29
2023/04/04 11:12:57;;;;;;;2.13;0.65;;;;;;;13.54;36.30;103034.97;5031158;28;101092;-29
2023/04/04 11:15:25;;;;;;;4.00;1.42;;;;;;;13.72;36.11;103029.75;5032531;27;96588;-29
2023/04/04 11:17:52;;;;;;;2.90;1.17;;;;;;;13.89;38.12;103024.50;5029937;28;97032;-30
2023/04/04 11:20:44;;;;;;;0.88;0.65;;;;;;;14.03;37.84;103022.09;5031964;27;97967;-29
2023/04/04 11:24:03;;;;;;;2.57;1.07;;;;;;;13.91;36.44;103024.44;5031097;28;99073;-29
2023/04/04 11:26:31;;;;;;;1.67;1.17;;;;;;;13.91;35.27;103025.31;5015443;27;96854;-29
2023/04/04 11:29:06;;;;;;;4.07;1.25;;;;;;;14.02;37.26;103012.16;5031382;28;96838;-30